createdAt,value
2018-08-16T00:00:40.200Z,98863.67
2018-08-16T00:03:07.738Z,98866.25
2018-08-16T00:05:34.984Z,98862.19
2018-08-16T00:08:02.208Z,98858.44
2018-08-16T00:10:29.447Z,98860.53
2018-08-16T00:12:56.724Z,98859.67
2018-08-16T00:15:23.960Z,98854.46
2018-08-16T00:17:51.247Z,98851.36
2018-08-16T00:23:08.659Z,98856.77
2018-08-16T00:25:35.898Z,98861.02
2018-08-16T00:28:03.176Z,98860.28
2018-08-16T00:30:30.402Z,98862.66
2018-08-16T00:32:57.665Z,98854.52
2018-08-16T00:35:24.938Z,98856.52
2018-08-16T00:37:52.216Z,98854.94
2018-08-16T00:40:19.463Z,98854.27
2018-08-16T00:42:46.714Z,98858.78
2018-08-16T00:45:14.204Z,98858.96
2018-08-16T00:47:41.507Z,98866.06
2018-08-16T00:50:12.386Z,98863.13
2018-08-16T00:52:39.637Z,98857.92
2018-08-16T00:55:07.912Z,98858.56
2018-08-16T00:57:35.669Z,98852.95
2018-08-16T01:00:03.099Z,98853.59
2018-08-16T01:02:30.349Z,98854.70
2018-08-16T01:04:57.576Z,98855.71
2018-08-16T01:07:25.092Z,98856.31
2018-08-16T01:09:52.394Z,98856.10
2018-08-16T01:12:19.651Z,98846.12
2018-08-16T01:14:46.863Z,98844.97
2018-08-16T01:17:14.142Z,98843.13
2018-08-16T01:19:41.435Z,98841.61
2018-08-16T01:22:09.097Z,98843.34
2018-08-16T01:24:36.668Z,98831.84
2018-08-16T01:27:03.964Z,98839.72
2018-08-16T01:29:31.239Z,98844.74
2018-08-16T01:31:58.497Z,98840.31
2018-08-16T01:34:25.723Z,98845.72
2018-08-16T01:36:52.950Z,98845.83
2018-08-16T01:39:20.174Z,98844.53
2018-08-16T01:41:47.394Z,98840.63
2018-08-16T01:44:14.630Z,98837.50
2018-08-16T01:46:41.828Z,98845.31
2018-08-16T01:49:20.602Z,98843.19
2018-08-16T01:51:47.809Z,98841.27
2018-08-16T01:54:15.032Z,98841.84
2018-08-16T01:56:42.231Z,98840.63
2018-08-16T01:59:09.459Z,98839.45
2018-08-16T02:01:36.683Z,98832.08
2018-08-16T02:04:03.957Z,98843.14
2018-08-16T02:06:31.175Z,98840.95
2018-08-16T02:08:58.438Z,98834.00
2018-08-16T02:11:25.687Z,98829.12
2018-08-16T02:13:53.199Z,98824.75
2018-08-16T02:16:20.447Z,98823.94
2018-08-16T02:18:47.683Z,98824.40
2018-08-16T02:21:14.932Z,98824.02
2018-08-16T02:23:42.161Z,98823.21
2018-08-16T02:26:09.383Z,98821.48
2018-08-16T02:28:36.642Z,98824.26
2018-08-16T02:31:03.967Z,98825.23
2018-08-16T02:33:31.647Z,98827.17
2018-08-16T02:35:58.879Z,98821.91
2018-08-16T02:38:26.122Z,98823.62
2018-08-16T02:40:53.340Z,98821.88
2018-08-16T02:43:20.576Z,98814.84
2018-08-16T02:45:47.783Z,98822.77
2018-08-16T02:48:15.039Z,98816.67
2018-08-16T02:50:42.245Z,98809.61
2018-08-16T02:53:09.499Z,98818.61
2018-08-16T02:55:36.708Z,98812.09
2018-08-16T02:58:04.194Z,98815.23
2018-08-16T03:00:31.411Z,98813.52
2018-08-16T03:02:58.652Z,98816.20
2018-08-16T03:05:25.893Z,98812.70
2018-08-16T03:07:53.151Z,98808.64
2018-08-16T03:10:20.360Z,98808.17
2018-08-16T03:12:47.563Z,98806.10
2018-08-16T03:15:14.846Z,98801.91
2018-08-16T03:17:43.722Z,98804.58
2018-08-16T03:20:11.940Z,98803.25
2018-08-16T03:22:43.152Z,98804.58
2018-08-16T03:25:10.431Z,98801.98
2018-08-16T03:27:37.661Z,98805.95
2018-08-16T03:30:05.251Z,98802.09
2018-08-16T03:32:32.452Z,98804.22
2018-08-16T03:34:59.722Z,98801.51
2018-08-16T03:37:26.954Z,98795.89
2018-08-16T03:39:54.183Z,98805.59
2018-08-16T03:42:21.383Z,98795.26
2018-08-16T03:44:48.614Z,98790.16
2018-08-16T03:47:15.806Z,98789.45
2018-08-16T03:49:43.050Z,98791.34
2018-08-16T03:52:10.252Z,98795.04
2018-08-16T03:54:37.477Z,98794.33
2018-08-16T03:57:04.749Z,98799.15
2018-08-16T03:59:31.988Z,98797.84
2018-08-16T04:01:59.195Z,98800.08
2018-08-16T04:04:26.465Z,98803.56
2018-08-16T04:06:53.715Z,98801.81
2018-08-16T04:09:21.107Z,98797.89
2018-08-16T04:11:48.334Z,98797.95
2018-08-16T04:14:15.592Z,98801.40
2018-08-16T04:16:42.828Z,98804.42
2018-08-16T04:19:10.084Z,98805.19
2018-08-16T04:21:37.335Z,98805.29
2018-08-16T04:24:04.609Z,98804.04
2018-08-16T04:26:31.814Z,98806.11
2018-08-16T04:28:59.142Z,98806.67
2018-08-16T04:31:26.366Z,98807.52
2018-08-16T04:33:53.621Z,98811.95
2018-08-16T04:36:20.831Z,98812.70
2018-08-16T04:38:48.074Z,98811.33
2018-08-16T04:41:15.359Z,98811.25
2018-08-16T04:43:42.573Z,98813.87
2018-08-16T04:46:09.935Z,98809.25
2018-08-16T04:48:37.181Z,98802.72
2018-08-16T04:51:04.551Z,98805.19
2018-08-16T04:53:31.846Z,98802.31
2018-08-16T04:55:59.159Z,98802.88
2018-08-16T04:58:26.382Z,98794.17
2018-08-16T05:00:53.638Z,98791.98
2018-08-16T05:03:20.879Z,98792.31
2018-08-16T05:05:48.131Z,98789.99
2018-08-16T05:08:15.352Z,98787.71
2018-08-16T05:10:42.590Z,98786.63
2018-08-16T05:13:09.817Z,98786.55
2018-08-16T05:15:37.078Z,98783.77
2018-08-16T05:18:04.608Z,98787.59
2018-08-16T05:20:31.896Z,98786.65
2018-08-16T05:22:59.159Z,98784.70
2018-08-16T05:25:26.430Z,98785.70
2018-08-16T05:27:53.986Z,98784.29
2018-08-16T05:30:21.241Z,98783.75
2018-08-16T05:32:48.468Z,98780.34
2018-08-16T05:35:15.729Z,98776.53
2018-08-16T05:37:43.018Z,98768.19
2018-08-16T05:40:10.919Z,98776.49
2018-08-16T05:42:38.644Z,98774.25
2018-08-16T05:45:06.626Z,98778.84
2018-08-16T05:47:34.076Z,98778.09
2018-08-16T05:50:01.331Z,98776.88
2018-08-16T05:52:28.580Z,98779.67
2018-08-16T05:54:56.081Z,98776.83
2018-08-16T05:57:23.327Z,98780.34
2018-08-16T05:59:50.592Z,98773.60
2018-08-16T06:02:18.004Z,98762.33
2018-08-16T06:04:45.242Z,98765.63
2018-08-16T06:07:12.550Z,98766.49
2018-08-16T06:09:39.774Z,98765.73
2018-08-16T06:12:07.110Z,98766.50
2018-08-16T06:14:34.345Z,98764.95
2018-08-16T06:17:01.638Z,98761.27
2018-08-16T06:19:28.883Z,98761.77
2018-08-16T06:21:56.215Z,98757.99
2018-08-16T06:24:23.950Z,98758.95
2018-08-16T06:26:51.310Z,98754.42
2018-08-16T06:29:18.605Z,98759.95
2018-08-16T06:31:45.953Z,98757.69
2018-08-16T06:34:13.124Z,98760.14
2018-08-16T06:36:40.417Z,98756.23
2018-08-16T06:39:09.443Z,98754.92
2018-08-16T06:41:36.911Z,98761.58
2018-08-16T06:44:04.399Z,98762.53
2018-08-16T06:46:31.738Z,98751.49
2018-08-16T06:48:58.975Z,98749.70
2018-08-16T06:51:26.231Z,98749.10
2018-08-16T06:53:53.786Z,98743.77
2018-08-16T06:56:21.186Z,98742.66
2018-08-16T06:58:48.411Z,98739.02
2018-08-16T07:01:15.700Z,98735.69
2018-08-16T07:03:43.455Z,98741.19
2018-08-16T07:06:10.735Z,98734.67
2018-08-16T07:08:37.984Z,98727.50
2018-08-16T07:11:05.263Z,98731.63
2018-08-16T07:13:32.555Z,98736.12
2018-08-16T07:15:59.850Z,98730.50
2018-08-16T07:18:27.067Z,98731.30
2018-08-16T07:20:54.326Z,98727.92
2018-08-16T07:23:21.579Z,98730.69
2018-08-16T07:25:48.827Z,98724.80
2018-08-16T07:28:16.204Z,98713.98
2018-08-16T07:30:43.440Z,98713.56
2018-08-16T07:33:10.661Z,98717.83
2018-08-16T07:35:37.867Z,98708.88
2018-08-16T07:38:05.376Z,98709.73
2018-08-16T07:40:33.696Z,98714.63
2018-08-16T07:43:00.926Z,98710.92
2018-08-16T07:45:28.230Z,98706.16
2018-08-16T07:47:55.465Z,98712.34
2018-08-16T07:50:22.688Z,98714.08
2018-08-16T07:52:49.969Z,98714.16
2018-08-16T07:55:17.251Z,98710.46
2018-08-16T07:57:44.518Z,98712.54
2018-08-16T08:00:14.733Z,98710.98
2018-08-16T08:02:42.312Z,98715.61
2018-08-16T08:05:09.842Z,98710.56
2018-08-16T08:07:37.093Z,98707.20
2018-08-16T08:10:04.571Z,98698.81
2018-08-16T08:12:31.828Z,98707.45
2018-08-16T08:14:59.145Z,98701.78
2018-08-16T08:17:26.418Z,98709.36
2018-08-16T08:19:53.648Z,98707.09
2018-08-16T08:22:20.882Z,98698.97
2018-08-16T08:24:48.134Z,98696.30
2018-08-16T08:27:15.383Z,98706.93
2018-08-16T08:29:42.588Z,98700.70
2018-08-16T08:32:09.891Z,98699.22
2018-08-16T08:34:37.179Z,98693.55
2018-08-16T08:37:15.804Z,98695.00
2018-08-16T08:39:43.017Z,98694.84
2018-08-16T08:42:10.328Z,98686.02
2018-08-16T08:44:37.596Z,98686.41
2018-08-16T08:47:04.879Z,98689.38
2018-08-16T08:49:32.129Z,98683.09
2018-08-16T08:51:59.426Z,98680.38
2018-08-16T08:55:08.764Z,98672.86
2018-08-16T08:57:47.439Z,98662.00
2018-08-16T09:00:14.726Z,98666.94
2018-08-16T09:02:41.958Z,98661.77
2018-08-16T09:05:09.267Z,98656.77
2018-08-16T09:07:36.596Z,98660.51
2018-08-16T09:11:16.044Z,98661.27
2018-08-16T09:13:55.875Z,98663.88
2018-08-16T09:16:29.273Z,98658.03
2018-08-16T09:18:56.861Z,98655.56
2018-08-16T09:21:24.205Z,98660.45
2018-08-16T09:23:51.524Z,98656.08
2018-08-16T09:26:24.587Z,98654.42
2018-08-16T09:28:51.892Z,98644.36
2018-08-16T09:31:31.149Z,98646.91
2018-08-16T09:34:17.695Z,98643.02
2018-08-16T09:36:45.029Z,98642.31
2018-08-16T09:39:12.364Z,98629.77
2018-08-16T09:41:39.694Z,98626.38
2018-08-16T09:44:07.163Z,98625.67
2018-08-16T09:47:00.736Z,98628.00
2018-08-16T09:49:29.311Z,98623.02
2018-08-16T09:51:56.753Z,98621.26
2018-08-16T09:54:24.063Z,98611.80
2018-08-16T09:56:51.799Z,98607.77
2018-08-16T09:59:19.211Z,98610.45
2018-08-16T10:01:46.544Z,98617.20
2018-08-16T10:04:13.823Z,98602.19
2018-08-16T10:06:41.894Z,98602.19
2018-08-16T10:09:11.012Z,98592.83
2018-08-16T10:11:38.296Z,98592.68
2018-08-16T10:14:05.577Z,98586.02
2018-08-16T10:16:33.160Z,98581.78
2018-08-16T10:19:00.487Z,98574.23
2018-08-16T10:21:27.764Z,98572.38
2018-08-16T10:23:54.998Z,98561.14
2018-08-16T10:26:28.990Z,98569.31
2018-08-16T10:28:56.242Z,98566.67
2018-08-16T10:31:24.043Z,98557.66
2018-08-16T10:33:51.287Z,98547.73
2018-08-16T10:36:18.526Z,98559.72
2018-08-16T10:38:45.808Z,98545.55
2018-08-16T10:41:13.054Z,98545.48
2018-08-16T10:43:40.312Z,98548.80
2018-08-16T10:46:07.667Z,98552.20
2018-08-16T10:48:34.964Z,98548.94
2018-08-16T10:51:02.569Z,98547.91
2018-08-16T10:53:29.825Z,98541.53
2018-08-16T10:55:57.595Z,98543.06
2018-08-16T10:58:24.821Z,98538.89
2018-08-16T11:00:52.076Z,98529.48
2018-08-16T11:03:19.556Z,98531.89
2018-08-16T11:05:46.827Z,98524.08
2018-08-16T11:08:14.087Z,98519.97
2018-08-16T11:10:41.388Z,98524.86
2018-08-16T11:13:08.667Z,98513.80
2018-08-16T11:15:35.944Z,98508.03
2018-08-16T11:18:03.199Z,98505.38
2018-08-16T11:20:30.447Z,98509.09
2018-08-16T11:22:57.687Z,98498.69
2018-08-16T11:25:24.910Z,98494.52
2018-08-16T11:27:52.123Z,98489.72
2018-08-16T11:30:19.518Z,98487.18
2018-08-16T11:32:46.759Z,98490.57
2018-08-16T11:35:14.079Z,98491.41
2018-08-16T11:37:41.345Z,98495.85
2018-08-16T11:40:09.480Z,98487.98
2018-08-16T11:42:36.765Z,98480.34
2018-08-16T11:45:04.784Z,98478.94
2018-08-16T11:47:32.002Z,98480.97
2018-08-16T11:49:59.219Z,98479.52
2018-08-16T11:52:26.436Z,98469.60
2018-08-16T11:54:53.669Z,98468.81
2018-08-16T11:57:20.870Z,98465.04
2018-08-16T11:59:48.070Z,98465.09
2018-08-16T12:02:15.354Z,98463.94
2018-08-16T12:04:42.575Z,98462.08
2018-08-16T12:07:09.942Z,98464.25
2018-08-16T12:09:37.156Z,98461.37
2018-08-16T12:12:04.669Z,98460.53
2018-08-16T12:14:31.943Z,98454.86
2018-08-16T12:16:59.253Z,98444.74
2018-08-16T12:19:26.471Z,98432.36
2018-08-16T12:21:53.702Z,98437.21
2018-08-16T12:24:20.928Z,98439.22
2018-08-16T12:26:48.226Z,98436.09
2018-08-16T12:29:15.460Z,98434.11
2018-08-16T12:31:42.706Z,98429.83
2018-08-16T12:34:09.928Z,98429.22
2018-08-16T12:36:37.227Z,98420.34
2018-08-16T12:39:05.536Z,98420.71
2018-08-16T12:41:32.791Z,98425.48
2018-08-16T12:44:00.000Z,98424.59
2018-08-16T12:46:27.268Z,98424.69
2018-08-16T12:48:54.479Z,98413.86
2018-08-16T12:51:21.695Z,98401.79
2018-08-16T12:53:48.887Z,98406.48
2018-08-16T12:56:16.134Z,98392.97
2018-08-16T12:58:43.341Z,98402.52
2018-08-16T13:01:10.618Z,98394.38
2018-08-16T13:03:37.867Z,98387.95
2018-08-16T13:06:19.335Z,98386.72
2018-08-16T13:08:47.497Z,98380.28
2018-08-16T13:11:14.715Z,98380.60
2018-08-16T13:13:42.022Z,98382.54
2018-08-16T13:16:09.408Z,98371.15
2018-08-16T13:18:36.642Z,98374.42
2018-08-16T13:21:04.015Z,98365.72
2018-08-16T13:23:31.270Z,98365.97
2018-08-16T13:25:58.558Z,98355.92
2018-08-16T13:28:25.827Z,98366.92
2018-08-16T13:30:53.129Z,98365.14
2018-08-16T13:33:20.396Z,98364.20
2018-08-16T13:35:47.667Z,98359.32
2018-08-16T13:38:14.923Z,98362.30
2018-08-16T13:40:43.563Z,98355.23
2018-08-16T13:43:10.789Z,98350.22
2018-08-16T13:45:38.087Z,98353.16
2018-08-16T13:48:05.466Z,98346.28
2018-08-16T13:50:32.765Z,98352.52
2018-08-16T13:52:59.958Z,98345.09
2018-08-16T13:55:27.186Z,98350.28
2018-08-16T13:57:54.464Z,98349.63
2018-08-16T14:00:21.731Z,98344.31
2018-08-16T14:02:48.997Z,98338.51
2018-08-16T14:05:16.244Z,98343.03
2018-08-16T14:07:43.774Z,98334.78
2018-08-16T14:10:10.999Z,98330.41
2018-08-16T14:12:38.810Z,98324.88
2018-08-16T14:15:06.362Z,98330.30
2018-08-16T14:17:33.641Z,98333.13
2018-08-16T14:20:00.870Z,98321.49
2018-08-16T14:22:28.131Z,98323.09
2018-08-16T14:24:55.403Z,98321.81
2018-08-16T14:27:22.708Z,98316.19
2018-08-16T14:29:49.921Z,98323.81
2018-08-16T14:32:17.211Z,98320.41
2018-08-16T14:34:44.456Z,98315.44
2018-08-16T14:37:12.654Z,98316.05
2018-08-16T14:39:39.923Z,98315.06
2018-08-16T14:42:07.326Z,98309.34
2018-08-16T14:44:34.536Z,98309.51
2018-08-16T14:47:01.807Z,98304.13
2018-08-16T14:49:29.008Z,98304.89
2018-08-16T14:51:56.316Z,98301.09
2018-08-16T14:54:23.520Z,98298.79
2018-08-16T14:56:50.762Z,98291.52
2018-08-16T14:59:17.997Z,98297.94
2018-08-16T15:01:45.240Z,98296.88
2018-08-16T15:04:12.456Z,98294.86
2018-08-16T15:06:39.705Z,98290.42
2018-08-16T15:09:09.344Z,98295.40
2018-08-16T15:11:36.583Z,98297.80
2018-08-16T15:14:03.855Z,98301.78
2018-08-16T15:16:31.155Z,98287.32
2018-08-16T15:18:58.556Z,98286.73
2018-08-16T15:21:25.774Z,98284.34
2018-08-16T15:23:53.028Z,98279.80
2018-08-16T15:26:20.414Z,98286.47
2018-08-16T15:28:47.663Z,98283.48
2018-08-16T15:31:14.919Z,98282.12
2018-08-16T15:33:42.148Z,98280.60
2018-08-16T15:36:09.367Z,98281.30
2018-08-16T15:38:36.698Z,98279.42
2018-08-16T15:41:04.005Z,98278.77
2018-08-16T15:43:31.415Z,98278.09
2018-08-16T15:45:58.640Z,98269.26
2018-08-16T15:48:25.868Z,98273.67
2018-08-16T15:50:54.057Z,98264.36
2018-08-16T15:53:21.287Z,98266.56
2018-08-16T15:55:48.535Z,98264.69
2018-08-16T15:58:15.781Z,98268.09
2018-08-16T16:00:43.011Z,98266.05
2018-08-16T16:03:10.248Z,98267.40
2018-08-16T16:05:37.627Z,98269.28
2018-08-16T16:08:04.877Z,98263.84
2018-08-16T16:10:32.172Z,98263.84
2018-08-16T16:12:59.388Z,98262.84
2018-08-16T16:15:26.622Z,98262.84
2018-08-16T16:17:53.865Z,98263.50
2018-08-16T16:20:21.082Z,98262.48
2018-08-16T16:22:48.330Z,98259.41
2018-08-16T16:25:15.538Z,98256.86
2018-08-16T16:27:42.779Z,98258.23
2018-08-16T16:30:10.614Z,98249.25
2018-08-16T16:32:37.828Z,98248.88
2018-08-16T16:35:05.221Z,98250.25
2018-08-16T16:37:32.436Z,98253.98
2018-08-16T16:39:59.670Z,98243.78
2018-08-16T16:42:26.898Z,98246.83
2018-08-16T16:44:54.740Z,98237.31
2018-08-16T16:47:22.019Z,98239.67
2018-08-16T16:49:49.264Z,98237.64
2018-08-16T16:52:16.581Z,98238.77
2018-08-16T16:54:43.766Z,98240.13
2018-08-16T16:57:10.966Z,98240.59
2018-08-16T16:59:38.214Z,98230.73
2018-08-16T17:02:05.730Z,98234.63
2018-08-16T17:04:32.960Z,98233.24
2018-08-16T17:07:00.211Z,98235.08
2018-08-16T17:09:27.505Z,98232.53
2018-08-16T17:11:54.720Z,98231.31
2018-08-16T17:14:21.984Z,98231.08
2018-08-16T17:16:49.244Z,98233.78
2018-08-16T17:19:16.622Z,98227.52
2018-08-16T17:21:43.843Z,98234.63
2018-08-16T17:24:11.090Z,98233.57
2018-08-16T17:26:39.411Z,98230.14
2018-08-16T17:29:09.621Z,98233.52
2018-08-16T17:31:36.852Z,98226.70
2018-08-16T17:34:04.161Z,98232.41
2018-08-16T17:36:32.421Z,98231.69
2018-08-16T17:39:05.052Z,98230.66
2018-08-16T17:41:35.044Z,98233.48
2018-08-16T17:44:03.395Z,98227.90
2018-08-16T17:46:31.903Z,98234.91
2018-08-16T17:49:00.716Z,98235.06
2018-08-16T17:51:28.095Z,98237.62
2018-08-16T17:53:58.386Z,98234.45
2018-08-16T17:56:28.039Z,98227.29
2018-08-16T17:58:55.907Z,98232.30
2018-08-16T18:01:25.323Z,98231.69
2018-08-16T18:03:54.809Z,98227.98
2018-08-16T18:06:29.931Z,98236.09
2018-08-16T18:08:59.708Z,98235.49
2018-08-16T18:11:29.159Z,98230.66
2018-08-16T18:13:58.866Z,98231.52
2018-08-16T18:16:26.166Z,98232.41
2018-08-16T18:18:53.528Z,98238.03
2018-08-16T18:21:20.873Z,98233.86
2018-08-16T18:23:48.394Z,98239.14
2018-08-16T18:26:15.788Z,98241.42
2018-08-16T18:28:43.737Z,98240.61
2018-08-16T18:34:26.506Z,98241.14
2018-08-16T18:36:54.009Z,98241.67
2018-08-16T18:39:21.490Z,98238.08
2018-08-16T18:41:49.143Z,98236.82
2018-08-16T18:44:16.541Z,98249.05
2018-08-16T18:46:43.850Z,98251.88
2018-08-16T18:49:11.247Z,98247.66
2018-08-16T18:51:38.569Z,98248.95
2018-08-16T18:54:05.958Z,98251.81
2018-08-16T18:56:33.568Z,98256.22
2018-08-16T18:59:00.953Z,98257.41
2018-08-16T19:01:28.305Z,98261.88
2018-08-16T19:03:56.262Z,98260.43
2018-08-16T19:06:23.655Z,98259.27
2018-08-16T19:08:51.186Z,98269.66
2018-08-16T19:11:18.608Z,98266.78
2018-08-16T19:13:45.926Z,98266.19
2018-08-16T19:16:13.338Z,98272.16
2018-08-16T19:18:40.808Z,98269.23
2018-08-16T19:21:08.129Z,98268.95
2018-08-16T19:23:35.746Z,98266.31
2018-08-16T19:26:03.825Z,98266.30
2018-08-16T19:28:31.121Z,98260.44
2018-08-16T19:30:58.932Z,98257.88
2018-08-16T19:33:26.296Z,98258.51
2018-08-16T19:35:53.657Z,98263.49
2018-08-16T19:38:20.946Z,98267.50
2018-08-16T19:40:48.268Z,98269.83
2018-08-16T19:43:15.635Z,98267.51
2018-08-16T19:45:43.419Z,98273.59
2018-08-16T19:48:10.895Z,98261.97
2018-08-16T19:50:38.115Z,98270.50
2018-08-16T19:53:06.349Z,98273.91
2018-08-16T19:55:33.754Z,98274.06
2018-08-16T19:58:01.094Z,98274.06
2018-08-16T20:00:29.248Z,98274.38
2018-08-16T20:02:56.656Z,98277.39
2018-08-16T20:05:23.961Z,98273.34
2018-08-16T20:07:51.380Z,98278.13
2018-08-16T20:10:19.510Z,98276.91
2018-08-16T20:12:46.913Z,98273.61
2018-08-16T20:15:14.305Z,98275.86
2018-08-16T20:17:41.618Z,98270.74
2018-08-16T20:20:09.158Z,98267.57
2018-08-16T20:22:36.468Z,98266.14
2018-08-16T20:25:04.173Z,98266.87
2018-08-16T20:27:31.362Z,98264.89
2018-08-16T20:29:58.639Z,98270.72
2018-08-16T20:32:25.884Z,98264.84
2018-08-16T20:34:53.136Z,98268.11
2018-08-16T20:37:20.374Z,98272.59
2018-08-16T20:39:47.618Z,98269.48
2018-08-16T20:42:14.894Z,98280.28
2018-08-16T20:44:42.491Z,98272.55
2018-08-16T20:47:09.752Z,98274.53
2018-08-16T20:49:36.994Z,98272.34
2018-08-16T20:52:04.362Z,98275.50
2018-08-16T20:54:31.592Z,98272.34
2018-08-16T20:56:58.835Z,98276.23
2018-08-16T20:59:26.072Z,98266.42
2018-08-16T21:01:53.350Z,98272.18
2018-08-16T21:04:20.557Z,98270.31
2018-08-16T21:06:47.834Z,98270.02
2018-08-16T21:09:15.051Z,98272.52
2018-08-16T21:11:42.320Z,98266.31
2018-08-16T21:14:09.532Z,98268.05
2018-08-16T21:16:36.811Z,98272.39
2018-08-16T21:19:04.095Z,98275.81
2018-08-16T21:21:31.361Z,98272.81
2018-08-16T21:23:58.558Z,98271.11
2018-08-16T21:26:25.902Z,98272.38
2018-08-16T21:28:53.112Z,98273.40
2018-08-16T21:31:20.341Z,98265.61
2018-08-16T21:33:47.581Z,98272.66
2018-08-16T21:36:14.819Z,98266.30
2018-08-16T21:38:42.223Z,98272.28
2018-08-16T21:41:09.451Z,98272.74
2018-08-16T21:43:36.654Z,98274.49
2018-08-16T21:46:04.074Z,98276.13
2018-08-16T21:48:31.296Z,98271.41
2018-08-16T21:50:58.531Z,98276.59
2018-08-16T21:53:25.734Z,98273.45
2018-08-16T21:55:52.990Z,98275.16
2018-08-16T21:58:20.203Z,98272.96
2018-08-16T22:00:55.746Z,98278.11
2018-08-16T22:03:24.360Z,98276.28
2018-08-16T22:06:00.703Z,98278.40
2018-08-16T22:08:31.851Z,98289.62
2018-08-16T22:10:59.070Z,98283.47
2018-08-16T22:13:27.155Z,98289.39
2018-08-16T22:15:54.481Z,98286.91
2018-08-16T22:18:21.698Z,98288.92
2018-08-16T22:20:48.966Z,98290.73
2018-08-16T22:23:16.202Z,98289.38
2018-08-16T22:25:43.430Z,98291.83
2018-08-16T22:28:10.678Z,98287.27
2018-08-16T22:30:37.876Z,98287.72
2018-08-16T22:33:05.148Z,98285.18
2018-08-16T22:35:32.344Z,98279.88
2018-08-16T22:37:59.565Z,98274.30
2018-08-16T22:40:26.763Z,98269.55
2018-08-16T22:42:53.964Z,98280.75
2018-08-16T22:45:21.218Z,98276.36
2018-08-16T22:47:48.475Z,98273.82
2018-08-16T22:50:15.704Z,98273.88
2018-08-16T22:52:42.934Z,98278.55
2018-08-16T22:55:10.198Z,98269.58
2018-08-16T22:57:37.432Z,98272.25
2018-08-16T23:00:05.825Z,98264.64
2018-08-16T23:02:33.070Z,98271.87
2018-08-16T23:05:00.322Z,98266.53
2018-08-16T23:07:27.564Z,98263.25
2018-08-16T23:09:54.757Z,98261.54
2018-08-16T23:12:22.039Z,98255.39
2018-08-16T23:14:49.238Z,98267.67
2018-08-16T23:17:16.478Z,98264.25
2018-08-16T23:19:43.675Z,98267.78
2018-08-16T23:22:10.896Z,98264.21
2018-08-16T23:24:38.136Z,98269.92
2018-08-16T23:27:05.475Z,98265.97
2018-08-16T23:29:32.658Z,98268.88
2018-08-16T23:31:59.895Z,98264.44
2018-08-16T23:34:27.082Z,98267.50
2018-08-16T23:36:54.335Z,98260.76
2018-08-16T23:39:21.534Z,98276.36
2018-08-16T23:41:48.766Z,98273.31
2018-08-16T23:44:16.006Z,98259.81
2018-08-16T23:46:43.192Z,98267.25
2018-08-16T23:49:10.410Z,98260.95
2018-08-16T23:51:37.604Z,98265.33
2018-08-16T23:54:04.869Z,98268.11
2018-08-16T23:56:32.079Z,98265.27
2018-08-16T23:58:59.345Z,98268.80
